Airfield :
LOGIN :

Register | Disclaimer

   EN    FR    IT 

 










Legend :    VFR   Marginal VFR   IFR   Intensive IFR   Very Intensive IFR
Visi :
Ceiling :
>= 8 km
>= 3000ft
5 to 8 km
1000 to 3000 ft
1500m to 5 km
500 to 1000 ft
800 to 1500m
200 to 500 ft
< 800m
< 200 ft
Symbols :   Thunderstorms  Fog  Heavy snow  Heavy precipitations  Wind > 20 kt
SIGMETs :     Misc.  Thunderstorms  Icing  Turbulence  Mountain Waves  Volcanic Ashes







- Airport Elevation : 915 ft
- IATA code : LUG


LSZA - Lugano

CURRENT METAR :
  • 230720Z 35003KT 3000 DZ BR SCT004 SCT010 OVC035 14/14 Q1014 NOSIG

EXPIRED METARs :
  • 230650Z 01002KT 3000 -RA BR SCT004 SCT025 OVC030 14/14 Q1014 NOSIG
  • 230620Z VRB01KT 1500 -RA BR SCT004 SCT025 OVC030 14/14 Q1014 NOSIG
  • 230550Z VRB01KT 4000 -RA BR SCT007 SCT012 OVC040 14/14 Q1014 NOSIG
  • 230520Z 17001KT 4000 -RA BR FEW011 SCT016 BKN021 14/14 Q1014 NOSIG
  • 230450Z 03002KT 9999 FEW009 SCT029 BKN037 14/14 Q1014 REDZ NOSIG

TAF TAF LSZA
Valid from the 23 at 06:00 until the 23 at 15:00 UTC


230525Z 2306/2315 VRB03KT 4000 BR FEW011 SCT016 BKN021
BECMG 2306/2309 9000 NSW SCT025
ATIS : +41 22 417 40 88
No reported NOTAMs for that airfield.



MET'MAP, your aeronautical weather chart ! - Copyright ORBIFLY December 2007 - Disclaimer

ORBIFLY MET'MAP TEAM :

Programming & Development : Alexandra Zaïnal
Concept & Development : Baudouin d'Aumeries
Co-Development & Prog : Marc-Olivier Méhu
Technical & hardware support : Manuel Goepfert

Contact : metmap@orbifly.com




SOURCES & CREDITS :

   NOAA